Time;durP1;ratioP1;P1;durP2;ratioP2;P2;SDS_P1;SDS_P2;PMS_P1;PMS_P2;Temp;Humidity;BMP_temperature;BMP_pressure;BME280_temperature;BME280_humidity;BME280_pressure;Samples;Min_cycle;Max_cycle;Signal;HPM_P1;HPM_P2
2022/01/01 00:00:33;;;;;;;113.72;53.85;;;10.30;99.90;;;;;;5025243;28;20064;-69
2022/01/01 00:02:59;;;;;;;114.82;54.17;;;10.10;99.90;;;;;;5029079;28;20091;-69
2022/01/01 00:05:25;;;;;;;118.40;52.78;;;10.20;99.90;;;;;;5029880;28;20034;-72
2022/01/01 00:07:51;;;;;;;101.60;50.45;;;10.10;99.90;;;;;;5014169;28;20040;-69
2022/01/01 00:10:18;;;;;;;110.30;50.20;;;10.20;99.90;;;;;;5028319;28;20068;-69
2022/01/01 00:12:46;;;;;;;112.28;50.08;;;10.20;99.90;;;;;;5030934;28;20497;-69
2022/01/01 00:15:12;;;;;;;112.78;50.88;;;10.10;99.90;;;;;;5031123;28;20443;-69
2022/01/01 00:17:38;;;;;;;118.47;48.28;;;10.00;99.90;;;;;;5014267;28;20037;-69
2022/01/01 00:20:04;;;;;;;124.80;52.70;;;10.30;99.90;;;;;;5030852;28;20114;-69
2022/01/01 00:22:30;;;;;;;104.55;46.65;;;10.20;99.90;;;;;;5014409;28;20547;-69
2022/01/01 00:24:55;;;;;;;106.05;49.20;;;10.10;99.90;;;;;;5030740;28;20037;-69
2022/01/01 00:27:21;;;;;;;112.32;48.65;;;10.20;99.90;;;;;;5030514;28;20124;-69
2022/01/01 00:29:46;;;;;;;105.18;48.10;;;10.00;99.90;;;;;;5029958;28;20114;-69
2022/01/01 00:32:12;;;;;;;104.97;49.47;;;10.20;99.90;;;;;;5029913;28;20252;-72
2022/01/01 00:34:37;;;;;;;103.80;45.50;;;10.10;99.90;;;;;;5030504;28;20132;-69
2022/01/01 00:37:05;;;;;;;86.88;41.58;;;10.10;99.90;;;;;;5014048;28;20041;-67
2022/01/01 00:39:30;;;;;;;95.22;41.95;;;9.90;99.90;;;;;;5030252;28;20059;-72
2022/01/01 00:41:56;;;;;;;91.57;38.20;;;10.20;99.90;;;;;;5030625;28;20033;-69
2022/01/01 00:44:21;;;;;;;90.05;39.88;;;10.20;99.90;;;;;;5030433;28;20033;-69
2022/01/01 00:46:47;;;;;;;88.35;37.20;;;10.20;99.90;;;;;;5030395;28;20037;-70
2022/01/01 00:49:12;;;;;;;99.40;41.17;;;10.10;99.90;;;;;;5030162;28;20044;-69
2022/01/01 00:51:38;;;;;;;84.55;40.38;;;10.20;99.90;;;;;;5030428;28;20060;-70
2022/01/01 00:54:04;;;;;;;86.95;34.70;;;10.10;99.90;;;;;;5030726;28;20041;-69
2022/01/01 00:56:29;;;;;;;86.75;33.72;;;10.00;99.90;;;;;;5030410;28;20041;-71
2022/01/01 00:58:54;;;;;;;97.50;34.10;;;10.00;99.90;;;;;;5030101;28;20038;-70
2022/01/01 01:01:20;;;;;;;80.13;32.22;;;9.90;99.90;;;;;;5030311;28;20037;-69
2022/01/01 01:03:46;;;;;;;84.00;32.85;;;10.00;99.90;;;;;;5030135;28;20095;-71
2022/01/01 01:06:13;;;;;;;74.85;33.45;;;10.20;99.90;;;;;;5030204;28;20116;-71
2022/01/01 01:08:40;;;;;;;82.38;31.13;;;10.00;99.90;;;;;;5030011;28;20033;-68
2022/01/01 01:11:08;;;;;;;77.05;29.15;;;10.10;99.90;;;;;;5029327;28;20037;-69
2022/01/01 01:13:35;;;;;;;74.53;29.00;;;10.00;99.90;;;;;;5030002;28;20069;-69
2022/01/01 01:16:00;;;;;;;74.05;26.38;;;9.90;99.90;;;;;;5030295;28;20053;-71
2022/01/01 01:18:26;;;;;;;82.30;27.98;;;10.00;99.90;;;;;;5029999;28;20033;-69
2022/01/01 01:20:52;;;;;;;71.22;24.67;;;9.90;99.90;;;;;;5029764;28;20033;-69
2022/01/01 01:23:18;;;;;;;70.68;24.60;;;9.80;99.90;;;;;;5030056;28;20163;-69
2022/01/01 01:25:43;;;;;;;69.22;26.83;;;9.90;99.90;;;;;;5029932;28;20040;-69
2022/01/01 01:28:10;;;;;;;71.68;26.98;;;9.70;99.90;;;;;;5029712;28;20029;-69
2022/01/01 01:30:37;;;;;;;79.90;27.92;;;9.60;99.90;;;;;;5029652;28;20041;-69
2022/01/01 01:33:04;;;;;;;85.95;32.85;;;9.80;99.90;;;;;;5030181;28;20120;-69
2022/01/01 01:35:31;;;;;;;89.10;33.88;;;;;;;;;;5029881;28;20120;-71
2022/01/01 01:37:56;;;;;;;108.53;39.55;;;9.80;99.90;;;;;;5013310;28;20041;-69
2022/01/01 01:40:22;;;;;;;95.65;39.40;;;9.70;99.90;;;;;;5029467;28;20056;-70
2022/01/01 01:42:47;;;;;;;114.68;43.63;;;9.60;99.90;;;;;;5032232;28;20038;-69
2022/01/01 01:45:18;;;;;;;126.13;49.15;;;9.80;99.90;;;;;;5034065;28;20065;-69
2022/01/01 01:47:45;;;;;;;123.38;51.17;;;9.70;99.90;;;;;;5033923;28;20097;-69
2022/01/01 01:50:12;;;;;;;158.88;56.15;;;9.90;99.90;;;;;;5033381;28;20477;-70
2022/01/01 01:52:39;;;;;;;132.15;55.50;;;9.60;99.90;;;;;;5050483;28;20380;-69
2022/01/01 01:55:08;;;;;;;142.25;58.35;;;9.70;99.90;;;;;;5033441;28;20038;-69
2022/01/01 01:57:35;;;;;;;132.68;59.22;;;9.70;99.90;;;;;;5033479;28;20566;-70
2022/01/01 02:00:01;;;;;;;127.63;53.63;;;9.70;99.90;;;;;;5033027;28;20033;-71
2022/01/01 02:02:26;;;;;;;136.32;59.22;;;9.70;99.90;;;;;;5034543;28;20667;-69
2022/01/01 02:04:52;;;;;;;139.75;54.17;;;9.80;99.90;;;;;;5033204;28;20041;-69
2022/01/01 02:07:18;;;;;;;128.52;50.63;;;9.70;99.90;;;;;;5033175;28;20041;-69
2022/01/01 02:09:44;;;;;;;116.68;48.03;;;9.60;99.90;;;;;;5032212;28;20029;-69
2022/01/01 02:12:09;;;;;;;110.75;46.00;;;9.70;99.90;;;;;;5033331;28;20396;-71
2022/01/01 02:17:23;;;;;;;103.25;43.88;;;9.80;99.90;;;;;;5033211;28;20053;-69
2022/01/01 02:19:56;;;;;;;98.35;40.33;;;9.70;99.90;;;;;;5032619;28;20091;-69
2022/01/01 02:22:22;;;;;;;97.72;40.22;;;9.70;99.90;;;;;;5016432;28;20041;-69
2022/01/01 02:24:48;;;;;;;101.38;38.20;;;9.70;99.90;;;;;;5032859;28;20037;-69
2022/01/01 02:27:14;;;;;;;112.65;39.10;;;9.70;99.90;;;;;;5032586;28;20370;-69
2022/01/01 02:29:39;;;;;;;101.22;38.50;;;9.80;99.90;;;;;;5032477;28;20113;-69
2022/01/01 02:32:08;;;;;;;117.47;39.10;;;9.80;99.90;;;;;;5032656;28;20421;-69
2022/01/01 02:34:35;;;;;;;116.85;44.80;;;9.40;99.90;;;;;;5032681;28;20037;-69
2022/01/01 02:37:01;;;;;;;117.13;47.33;;;9.60;99.90;;;;;;5032540;28;20041;-71
2022/01/01 02:39:26;;;;;;;119.47;48.08;;;9.70;99.90;;;;;;5032047;28;20088;-69
2022/01/01 02:41:54;;;;;;;135.13;52.00;;;9.80;99.90;;;;;;5032414;28;20095;-69
2022/01/01 02:44:24;;;;;;;142.13;56.30;;;9.80;99.90;;;;;;5032402;28;20075;-69
2022/01/01 02:46:52;;;;;;;126.00;53.85;;;9.90;99.90;;;;;;5032615;28;20037;-72
2022/01/01 02:49:17;;;;;;;126.28;53.13;;;9.90;99.90;;;;;;5015693;28;20044;-70
2022/01/01 02:51:43;;;;;;;129.40;50.53;;;9.60;99.90;;;;;;5032691;28;20030;-69
2022/01/01 02:54:08;;;;;;;138.10;54.95;;;9.80;99.90;;;;;;5048062;28;20037;-69
2022/01/01 02:56:34;;;;;;;128.02;53.30;;;9.80;99.90;;;;;;5032335;28;20400;-69
2022/01/01 02:59:00;;;;;;;135.52;51.33;;;9.70;99.90;;;;;;5032096;28;20033;-69
2022/01/01 03:01:25;;;;;;;125.10;48.97;;;9.80;99.90;;;;;;5032123;28;20045;-69
2022/01/01 03:03:51;;;;;;;129.18;47.40;;;9.80;99.90;;;;;;5015769;28;20038;-69
2022/01/01 03:06:19;;;;;;;122.43;45.60;;;9.60;99.90;;;;;;5032292;28;20093;-72
2022/01/01 03:08:54;;;;;;;130.07;45.70;;;9.90;99.90;;;;;;5032016;28;20519;-69
2022/01/01 03:11:20;;;;;;;115.90;45.20;;;9.70;99.90;;;;;;5031824;28;20029;-68
2022/01/01 03:13:46;;;;;;;114.57;43.97;;;9.80;99.90;;;;;;5031798;28;20499;-69
2022/01/01 03:16:12;;;;;;;123.65;45.30;;;9.80;99.90;;;;;;5015576;28;20125;-69
2022/01/01 03:18:39;;;;;;;122.13;46.95;;;9.80;99.90;;;;;;5031926;28;20404;-69
2022/01/01 03:21:05;;;;;;;123.85;44.60;;;9.90;99.90;;;;;;5031993;28;20047;-69
2022/01/01 03:23:31;;;;;;;119.68;44.90;;;10.00;99.90;;;;;;5031934;28;20071;-69
2022/01/01 03:25:57;;;;;;;124.30;45.50;;;10.00;99.90;;;;;;5015373;28;20079;-69
2022/01/01 03:28:23;;;;;;;133.00;46.72;;;10.00;99.90;;;;;;5031481;28;20037;-69
2022/01/01 03:30:48;;;;;;;131.45;48.08;;;9.90;99.90;;;;;;5014892;28;20065;-69
2022/01/01 03:33:14;;;;;;;115.95;45.70;;;9.70;99.90;;;;;;5031725;28;20068;-69
2022/01/01 03:35:40;;;;;;;131.73;50.75;;;9.90;99.90;;;;;;5032963;28;20037;-69
2022/01/01 03:38:05;;;;;;;132.38;51.05;;;9.80;99.90;;;;;;5031604;28;20033;-69
2022/01/01 03:40:31;;;;;;;150.32;51.17;;;9.80;99.90;;;;;;5031195;28;20119;-69
2022/01/01 03:42:56;;;;;;;140.25;56.25;;;9.90;99.90;;;;;;5014954;28;20092;-69
2022/01/01 03:45:22;;;;;;;131.45;49.38;;;9.90;99.90;;;;;;5015271;28;20551;-69
2022/01/01 03:47:48;;;;;;;155.95;57.03;;;9.90;99.90;;;;;;5031383;28;20036;-69
2022/01/01 03:50:13;;;;;;;140.48;56.50;;;9.80;99.90;;;;;;5031027;28;20041;-69
2022/01/01 03:52:43;;;;;;;137.45;54.95;;;9.80;99.90;;;;;;5031631;28;20531;-70
2022/01/01 03:55:09;;;;;;;136.10;53.65;;;9.80;99.90;;;;;;5031271;28;20033;-69
2022/01/01 03:57:35;;;;;;;150.43;56.42;;;9.90;99.90;;;;;;5031193;28;20041;-71
2022/01/01 04:00:01;;;;;;;173.50;60.03;;;10.00;99.90;;;;;;5031144;28;20037;-69
2022/01/01 04:02:26;;;;;;;150.38;57.38;;;9.80;99.90;;;;;;5031136;28;20042;-69
2022/01/01 04:04:52;;;;;;;144.95;58.40;;;9.90;99.90;;;;;;5030931;28;20492;-71
2022/01/01 04:07:17;;;;;;;146.88;56.75;;;9.90;99.90;;;;;;5014755;28;20034;-69
2022/01/01 04:09:43;;;;;;;147.80;58.25;;;9.80;99.90;;;;;;5013641;28;20120;-70
2022/01/01 04:12:08;;;;;;;148.27;61.10;;;9.80;99.90;;;;;;5030847;28;20115;-69
2022/01/01 04:14:34;;;;;;;130.70;56.25;;;10.00;99.90;;;;;;5030599;28;20039;-72
2022/01/01 04:16:59;;;;;;;154.07;61.88;;;9.90;99.90;;;;;;5030899;28;20049;-69
2022/01/01 04:19:36;;;;;;;127.85;58.90;;;9.90;99.90;;;;;;5030255;28;20045;-69
2022/01/01 04:22:02;;;;;;;147.90;62.00;;;9.80;99.90;;;;;;5030834;28;20056;-70
2022/01/01 04:24:27;;;;;;;152.52;63.40;;;9.90;99.90;;;;;;5030584;28;20034;-70
2022/01/01 04:26:53;;;;;;;151.32;64.60;;;9.90;99.90;;;;;;5030981;28;20427;-71
2022/01/01 04:29:18;;;;;;;149.45;68.50;;;9.90;99.90;;;;;;5070230;22;20098;-72
2022/01/01 04:31:44;;;;;;;156.10;69.82;;;10.00;99.90;;;;;;5033881;28;20052;-72
2022/01/01 04:34:09;;;;;;;165.80;76.72;;;9.90;99.90;;;;;;5034506;28;20404;-72
2022/01/01 04:36:46;;;;;;;166.68;74.22;;;9.90;99.90;;;;;;5034078;28;20048;-72
2022/01/01 04:39:11;;;;;;;161.73;79.03;;;10.00;99.90;;;;;;5019070;28;20041;-73
2022/01/01 04:41:37;;;;;;;162.07;77.22;;;9.80;99.90;;;;;;5013652;28;20056;-72
2022/01/01 04:44:03;;;;;;;171.30;77.78;;;9.90;99.90;;;;;;5014296;28;20512;-72
2022/01/01 04:46:28;;;;;;;167.35;78.45;;;9.90;99.90;;;;;;5014166;28;20037;-73
2022/01/01 04:48:54;;;;;;;166.80;76.28;;;10.10;99.90;;;;;;5014245;28;20121;-73
2022/01/01 04:51:19;;;;;;;165.75;75.65;;;10.20;99.90;;;;;;5013928;28;20627;-73
2022/01/01 04:53:46;;;;;;;170.95;74.75;;;10.00;99.90;;;;;;5014094;28;20477;-72
2022/01/01 04:56:18;;;;;;;170.23;71.35;;;10.20;99.90;;;;;;5014262;28;20416;-72
2022/01/01 04:58:43;;;;;;;147.15;64.70;;;10.30;99.90;;;;;;5013981;28;20574;-72
2022/01/01 05:01:09;;;;;;;132.60;52.13;;;10.10;99.90;;;;;;5013669;28;20076;-72
2022/01/01 05:03:34;;;;;;;133.18;50.90;;;10.10;99.90;;;;;;5013927;28;20041;-72
2022/01/01 05:06:00;;;;;;;140.93;49.05;;;10.20;99.90;;;;;;5030488;28;20041;-72
2022/01/01 05:08:26;;;;;;;145.00;46.97;;;10.20;99.90;;;;;;5013799;28;20496;-72
2022/01/01 05:10:52;;;;;;;149.57;48.03;;;10.20;99.90;;;;;;5013781;28;20044;-72
2022/01/01 05:13:19;;;;;;;135.35;46.67;;;10.40;99.90;;;;;;5030591;28;20132;-73
2022/01/01 05:15:45;;;;;;;158.70;45.65;;;10.30;99.90;;;;;;5014143;28;20136;-72
2022/01/01 05:18:11;;;;;;;159.10;46.45;;;10.10;99.90;;;;;;5013258;28;20556;-72
2022/01/01 05:20:36;;;;;;;174.98;51.22;;;10.00;99.90;;;;;;5013616;28;20037;-72
2022/01/01 05:23:02;;;;;;;147.73;49.55;;;10.40;99.90;;;;;;5013719;28;20037;-72
2022/01/01 05:25:28;;;;;;;192.10;55.70;;;10.10;99.90;;;;;;5013697;28;20033;-72
2022/01/01 05:27:53;;;;;;;154.27;48.05;;;10.00;99.90;;;;;;5013798;28;20041;-72
2022/01/01 05:30:19;;;;;;;184.75;52.65;;;10.20;99.90;;;;;;5013376;28;20416;-72
2022/01/01 05:32:45;;;;;;;174.60;52.17;;;10.00;99.90;;;;;;5013682;28;20077;-73
2022/01/01 05:35:10;;;;;;;196.57;56.63;;;9.80;99.90;;;;;;5013597;28;20124;-72
2022/01/01 05:37:36;;;;;;;177.13;53.85;;;10.00;99.90;;;;;;5013379;28;20421;-72
2022/01/01 05:40:03;;;;;;;167.65;50.72;;;10.10;99.90;;;;;;5013551;28;20094;-72
2022/01/01 05:42:28;;;;;;;180.50;52.08;;;10.10;99.90;;;;;;5013406;28;20090;-72
2022/01/01 05:44:54;;;;;;;154.15;48.90;;;10.10;99.90;;;;;;5013661;28;20042;-72
2022/01/01 05:47:20;;;;;;;160.57;48.60;;;10.20;99.90;;;;;;5013449;28;20045;-72
2022/01/01 05:49:45;;;;;;;153.85;47.10;;;10.20;99.90;;;;;;5013298;28;20037;-72
2022/01/01 05:52:11;;;;;;;151.77;46.70;;;10.30;99.90;;;;;;5013671;28;20505;-72
2022/01/01 05:54:37;;;;;;;149.20;46.42;;;10.10;99.90;;;;;;5013489;28;20037;-72
2022/01/01 05:57:03;;;;;;;137.82;45.30;;;10.30;99.90;;;;;;5013569;28;20041;-72
2022/01/01 05:59:29;;;;;;;135.82;45.88;;;10.30;99.90;;;;;;5013491;28;20034;-72
2022/01/01 06:01:54;;;;;;;136.13;44.45;;;10.20;99.90;;;;;;5029738;28;20076;-72
2022/01/01 06:04:20;;;;;;;117.72;37.90;;;10.20;99.90;;;;;;5013534;28;20060;-72
2022/01/01 06:06:46;;;;;;;120.30;36.90;;;10.30;99.90;;;;;;5013275;28;20513;-72
2022/01/01 06:09:12;;;;;;;107.10;35.03;;;10.50;99.90;;;;;;5029429;28;20515;-72
2022/01/01 06:11:37;;;;;;;109.25;31.98;;;10.40;99.90;;;;;;5029985;28;20136;-72
2022/01/01 06:14:03;;;;;;;110.75;31.75;;;10.40;99.90;;;;;;5013694;28;20487;-72
2022/01/01 06:16:28;;;;;;;96.43;31.27;;;10.40;99.90;;;;;;5013246;28;20049;-72
2022/01/01 06:18:54;;;;;;;101.50;30.08;;;10.50;99.90;;;;;;5013013;28;20207;-72
2022/01/01 06:21:20;;;;;;;90.40;30.33;;;10.50;99.90;;;;;;5013148;28;20037;-72
2022/01/01 06:23:45;;;;;;;103.22;29.55;;;10.40;99.90;;;;;;5013123;28;20390;-72
2022/01/01 06:26:11;;;;;;;94.00;28.98;;;10.50;99.90;;;;;;5013243;28;20060;-73
2022/01/01 06:28:37;;;;;;;97.05;29.85;;;10.50;99.90;;;;;;5013640;28;20609;-73
2022/01/01 06:31:02;;;;;;;102.00;30.42;;;10.40;99.90;;;;;;5016272;28;20042;-72
2022/01/01 06:33:28;;;;;;;115.65;34.08;;;10.60;99.90;;;;;;5032480;28;20026;-73
2022/01/01 06:35:56;;;;;;;105.93;32.78;;;10.50;99.90;;;;;;5015987;28;20033;-72
2022/01/01 06:38:21;;;;;;;108.05;34.50;;;10.30;99.90;;;;;;5031685;28;20045;-73
2022/01/01 06:40:47;;;;;;;112.38;35.30;;;10.50;99.90;;;;;;5032263;28;20044;-70
2022/01/01 06:43:15;;;;;;;104.70;35.63;;;10.40;99.90;;;;;;5015704;28;20033;-73
2022/01/01 06:45:42;;;;;;;102.35;34.50;;;10.70;99.90;;;;;;5032593;28;20047;-72
2022/01/01 06:48:07;;;;;;;99.45;34.33;;;10.50;99.90;;;;;;5032162;28;20148;-73
2022/01/01 06:50:35;;;;;;;104.53;33.28;;;10.40;99.90;;;;;;5016081;28;20464;-73
2022/01/01 06:53:00;;;;;;;99.25;34.92;;;10.60;99.90;;;;;;5015777;28;20072;-74
2022/01/01 06:55:26;;;;;;;107.90;32.88;;;10.40;99.90;;;;;;5016212;28;20073;-73
2022/01/01 06:57:52;;;;;;;97.43;31.65;;;10.50;99.90;;;;;;5016432;28;20107;-73
2022/01/01 07:00:17;;;;;;;92.95;32.10;;;10.40;99.90;;;;;;5032577;28;20141;-73
2022/01/01 07:02:45;;;;;;;83.38;29.13;;;10.60;99.90;;;;;;5015813;28;20076;-74
2022/01/01 07:05:12;;;;;;;97.00;29.95;;;10.50;99.90;;;;;;5032770;28;20088;-73
2022/01/01 07:07:38;;;;;;;92.57;29.38;;;10.50;99.90;;;;;;5015767;28;20072;-73
2022/01/01 07:10:05;;;;;;;99.25;34.47;;;10.70;99.90;;;;;;5015640;28;20075;-73
2022/01/01 07:12:31;;;;;;;90.40;31.05;;;10.50;99.90;;;;;;5015859;28;20045;-73
2022/01/01 07:14:57;;;;;;;93.05;31.27;;;10.70;99.90;;;;;;5015748;28;20045;-72
2022/01/01 07:17:22;;;;;;;98.85;32.42;;;10.70;99.90;;;;;;5023318;28;20128;-73
2022/01/01 07:19:48;;;;;;;91.85;31.67;;;10.60;99.90;;;;;;5005255;28;20049;-74
2022/01/01 07:22:13;;;;;;;92.03;34.50;;;10.60;99.90;;;;;;5010163;28;20041;-74
2022/01/01 07:24:39;;;;;;;86.75;29.83;;;10.70;99.90;;;;;;5040849;28;20097;-74
2022/01/01 07:27:05;;;;;;;84.57;31.25;;;10.90;99.90;;;;;;5006702;28;20084;-73
2022/01/01 07:29:31;;;;;;;80.30;31.77;;;10.80;99.90;;;;;;5004767;28;20033;-73
2022/01/01 07:31:58;;;;;;;87.57;32.65;;;;;;;;;;5007697;28;20087;-75
2022/01/01 07:34:24;;;;;;;92.15;31.83;;;10.80;99.90;;;;;;5025318;28;20033;-74
2022/01/01 07:36:50;;;;;;;88.05;31.67;;;;;;;;;;5006067;28;20504;-73
2022/01/01 07:39:16;;;;;;;97.07;33.60;;;;;;;;;;5037095;28;20034;-74
2022/01/01 07:41:42;;;;;;;90.68;33.00;;;10.90;99.90;;;;;;5022814;28;20052;-74
2022/01/01 07:44:09;;;;;;;90.80;31.77;;;10.70;99.90;;;;;;5004113;28;20129;-74
2022/01/01 07:46:35;;;;;;;82.47;32.35;;;10.90;99.90;;;;;;5004836;28;20045;-73
2022/01/01 07:49:01;;;;;;;86.15;32.15;;;;;;;;;;5022191;28;20037;-72
2022/01/01 07:51:26;;;;;;;77.70;31.05;;;10.80;99.90;;;;;;5036952;28;20034;-73
2022/01/01 07:53:52;;;;;;;75.88;31.35;;;;;;;;;;5005431;28;20048;-73
2022/01/01 07:56:18;;;;;;;83.85;31.85;;;;;;;;;;5011043;28;20532;-72
2022/01/01 07:58:44;;;;;;;82.85;32.63;;;;;;;;;;5047914;28;20048;-73
2022/01/01 08:01:10;;;;;;;87.00;33.97;;;10.90;99.90;;;;;;5031527;28;20123;-72
2022/01/01 08:03:35;;;;;;;92.97;33.85;;;11.00;99.90;;;;;;5031427;28;20048;-73
2022/01/01 08:06:01;;;;;;;86.70;32.33;;;10.80;99.90;;;;;;5031355;28;20480;-73
2022/01/01 08:08:27;;;;;;;86.60;34.58;;;;;;;;;;5031360;28;20037;-72
2022/01/01 08:10:52;;;;;;;86.53;31.92;;;10.90;99.90;;;;;;5031233;28;20033;-69
2022/01/01 08:13:23;;;;;;;80.22;34.60;;;10.90;99.90;;;;;;5031392;28;20045;-71
2022/01/01 08:15:50;;;;;;;85.55;33.22;;;;;;;;;;5015157;28;20059;-72
2022/01/01 08:18:15;;;;;;;82.55;32.60;;;10.90;99.90;;;;;;5031243;28;20049;-71
2022/01/01 08:20:42;;;;;;;86.22;33.63;;;;;;;;;;5064722;28;20472;-72
2022/01/01 08:23:08;;;;;;;93.35;34.45;;;;;;;;;;5031049;28;20041;-72
2022/01/01 08:25:34;;;;;;;94.32;31.70;;;11.20;99.90;;;;;;5030985;28;20037;-72
2022/01/01 08:28:00;;;;;;;82.25;33.33;;;11.00;99.90;;;;;;5014336;28;20040;-71
2022/01/01 08:30:26;;;;;;;78.57;32.15;;;11.00;99.90;;;;;;5030899;28;20376;-71
2022/01/01 08:32:51;;;;;;;90.50;33.28;;;11.00;99.90;;;;;;5031065;28;20115;-70
2022/01/01 08:35:17;;;;;;;80.32;32.60;;;11.00;99.90;;;;;;5031034;28;20484;-71
2022/01/01 08:37:42;;;;;;;90.47;31.98;;;11.00;99.90;;;;;;5064105;28;20060;-71
2022/01/01 08:40:09;;;;;;;76.75;31.23;;;11.10;99.90;;;;;;5030802;28;20089;-71
2022/01/01 08:42:34;;;;;;;79.30;32.40;;;11.20;99.90;;;;;;5030457;28;20069;-72
2022/01/01 08:45:00;;;;;;;77.13;30.35;;;;;;;;;;5063694;28;20127;-71
2022/01/01 08:47:26;;;;;;;73.22;32.45;;;11.10;99.90;;;;;;5047182;28;20038;-71
2022/01/01 08:49:55;;;;;;;81.75;29.40;;;10.90;99.90;;;;;;5013853;28;20044;-72
2022/01/01 08:52:21;;;;;;;76.75;31.10;;;;;;;;;;5013390;28;20041;-73
2022/01/01 08:54:47;;;;;;;99.40;31.20;;;11.20;99.90;;;;;;5047112;28;20037;-74
2022/01/01 08:57:13;;;;;;;81.57;30.02;;;11.40;99.90;;;;;;5014092;28;20168;-74
2022/01/01 08:59:38;;;;;;;84.18;31.27;;;11.30;99.90;;;;;;5011265;28;20045;-74
2022/01/01 09:02:04;;;;;;;73.15;29.15;;;11.20;99.90;;;;;;5030166;28;20128;-75
2022/01/01 09:04:30;;;;;;;65.60;28.67;;;11.30;99.90;;;;;;5030790;28;20119;-74
2022/01/01 09:06:56;;;;;;;66.13;27.50;;;11.20;99.90;;;;;;5009674;28;20108;-73
2022/01/01 09:09:21;;;;;;;66.47;27.95;;;11.40;99.90;;;;;;5018651;28;20036;-74
2022/01/01 09:11:47;;;;;;;69.43;26.88;;;11.30;99.90;;;;;;5027098;28;20095;-74
2022/01/01 09:14:12;;;;;;;62.28;26.35;;;11.30;99.90;;;;;;5026619;28;20041;-73
2022/01/01 09:16:38;;;;;;;73.95;27.15;;;11.30;99.90;;;;;;5010118;28;20085;-72
2022/01/01 09:19:05;;;;;;;56.88;23.70;;;;;;;;;;5014975;28;20563;-72
2022/01/01 09:21:31;;;;;;;65.60;24.08;;;;;;;;;;5007319;28;20049;-74
2022/01/01 09:23:57;;;;;;;46.72;22.08;;;;;;;;;;5007347;28;20046;-75
2022/01/01 09:26:23;;;;;;;56.28;22.25;;;11.30;99.90;;;;;;4991102;28;20048;-74
2022/01/01 09:28:49;;;;;;;51.92;23.40;;;;;;;;;;5008215;28;20136;-75
2022/01/01 09:31:15;;;;;;;62.08;24.90;;;;;;;;;;5010267;28;20121;-74
2022/01/01 09:33:41;;;;;;;57.50;23.52;;;11.50;99.90;;;;;;5011036;28;20038;-74
2022/01/01 09:36:09;;;;;;;54.42;21.77;;;11.40;99.90;;;;;;5030454;28;20048;-72
2022/01/01 09:38:35;;;;;;;58.90;22.75;;;11.60;99.90;;;;;;5030129;28;20045;-74
2022/01/01 09:41:02;;;;;;;58.65;23.98;;;11.60;99.90;;;;;;5029741;28;20116;-72
2022/01/01 09:43:30;;;;;;;59.33;24.30;;;11.50;99.90;;;;;;5030016;28;20049;-74
2022/01/01 09:45:57;;;;;;;50.60;22.08;;;11.60;99.90;;;;;;5030411;28;20038;-74
2022/01/01 09:48:24;;;;;;;52.50;20.73;;;11.40;99.90;;;;;;5030271;28;20060;-74
2022/01/01 09:50:54;;;;;;;54.53;20.50;;;11.50;99.90;;;;;;5010669;28;20103;-73
2022/01/01 09:53:23;;;;;;;51.15;20.42;;;11.50;99.90;;;;;;5012959;28;20069;-73
2022/01/01 09:55:49;;;;;;;41.50;19.40;;;11.60;99.90;;;;;;5011282;28;20455;-74
2022/01/01 09:58:15;;;;;;;46.95;19.27;;;;;;;;;;5011880;28;20037;-75
2022/01/01 10:00:41;;;;;;;43.50;19.33;;;;;;;;;;5012422;28;20412;-74
2022/01/01 10:03:12;;;;;;;40.63;17.63;;;11.30;99.90;;;;;;5011528;28;20320;-75
2022/01/01 10:05:59;;;;;;;41.53;19.42;;;11.60;99.90;;;;;;4997906;28;20397;-75
2022/01/01 10:08:24;;;;;;;48.60;17.38;;;11.50;99.90;;;;;;4997398;28;20034;-75
2022/01/01 10:10:53;;;;;;;46.72;18.17;;;11.50;99.90;;;;;;4997420;28;20034;-75
2022/01/01 10:13:28;;;;;;;44.25;17.20;;;11.70;99.90;;;;;;5016382;28;20108;-75
2022/01/01 10:15:55;;;;;;;46.08;17.95;;;11.60;99.90;;;;;;5016816;28;20025;-75
2022/01/01 10:18:29;;;;;;;36.53;17.52;;;11.60;99.90;;;;;;5016364;28;20076;-74
2022/01/01 10:21:00;;;;;;;34.53;15.88;;;11.60;99.90;;;;;;5016154;28;20041;-74
2022/01/01 10:23:29;;;;;;;43.92;16.65;;;11.50;99.90;;;;;;5016655;28;20068;-74
2022/01/01 10:29:15;;;;;;;39.65;15.88;;;11.50;99.90;;;;;;5061346;23;20064;-80
2022/01/01 10:32:00;;;;;;;43.20;16.83;;;11.80;99.90;;;;;;5025021;28;20044;-78
2022/01/01 10:34:31;;;;;;;30.50;14.20;;;11.80;99.90;;;;;;5024843;28;20036;-79
2022/01/01 10:36:57;;;;;;;31.45;14.95;;;;;;;;;;5026039;28;20076;-77
2022/01/01 10:39:23;;;;;;;36.35;16.17;;;;;;;;;;5023334;28;20128;-76
2022/01/01 10:41:53;;;;;;;37.72;15.00;;;11.80;99.90;;;;;;5026563;28;20095;-77
2022/01/01 10:44:33;;;;;;;35.80;16.10;;;11.70;99.90;;;;;;5026077;28;20136;-77
2022/01/01 10:46:59;;;;;;;33.08;14.88;;;11.80;99.90;;;;;;5020987;28;20698;-77
2022/01/01 10:52:23;;;;;;;30.20;14.57;;;11.90;99.90;;;;;;5042951;28;20044;-78
2022/01/01 10:54:51;;;;;;;33.97;15.88;;;11.90;99.90;;;;;;5026059;28;20067;-77
2022/01/01 10:57:42;;;;;;;29.90;14.02;;;11.60;99.90;;;;;;5025003;28;20048;-77
2022/01/01 11:00:18;;;;;;;29.48;13.98;;;11.80;99.90;;;;;;5025610;28;20033;-78
2022/01/01 11:03:04;;;;;;;32.08;15.15;;;12.00;99.90;;;;;;5024664;28;20396;-77
2022/01/01 11:05:32;;;;;;;31.42;14.20;;;11.90;99.90;;;;;;5038198;28;20041;-78
2022/01/01 11:07:59;;;;;;;37.08;14.85;;;12.00;99.90;;;;;;5023525;28;20041;-77
2022/01/01 11:10:27;;;;;;;27.90;14.43;;;12.00;99.90;;;;;;5025651;28;20037;-79
2022/01/01 11:12:54;;;;;;;34.13;14.98;;;11.90;99.90;;;;;;5021366;28;20041;-78
2022/01/01 11:15:21;;;;;;;27.33;13.65;;;;;;;;;;5020780;28;20051;-78
2022/01/01 11:17:47;;;;;;;30.42;12.90;;;11.90;99.90;;;;;;5024900;28;20098;-78
2022/01/01 11:20:14;;;;;;;33.17;13.18;;;12.00;99.90;;;;;;5022157;28;20538;-78
2022/01/01 11:22:44;;;;;;;27.92;12.82;;;11.80;99.90;;;;;;5019835;28;20442;-77
2022/01/01 11:25:10;;;;;;;30.88;13.50;;;12.00;99.90;;;;;;5023388;28;20079;-77
2022/01/01 11:27:36;;;;;;;32.67;13.30;;;;;;;;;;5019233;28;20064;-76
2022/01/01 11:30:07;;;;;;;29.88;13.52;;;12.20;99.90;;;;;;5021338;28;20037;-76
2022/01/01 11:32:48;;;;;;;29.35;11.98;;;12.00;99.90;;;;;;5020918;28;20480;-79
2022/01/01 11:35:44;;;;;;;26.67;11.48;;;12.00;99.90;;;;;;5007800;28;20051;-77
2022/01/01 11:38:15;;;;;;;25.48;11.73;;;12.20;99.90;;;;;;5025240;28;20123;-79
2022/01/01 11:40:58;;;;;;;23.15;11.10;;;12.20;99.90;;;;;;5039843;28;20054;-76
2022/01/01 11:43:44;;;;;;;24.52;11.25;;;12.10;99.90;;;;;;5023922;28;20073;-77
2022/01/01 11:46:11;;;;;;;26.27;10.05;;;12.10;99.90;;;;;;5020843;28;20040;-76
2022/01/01 11:48:41;;;;;;;18.25;9.55;;;12.30;99.90;;;;;;5022084;28;20041;-77
2022/01/01 11:51:20;;;;;;;21.80;9.70;;;12.00;99.90;;;;;;5040865;28;20079;-77
2022/01/01 11:54:14;;;;;;;20.77;9.38;;;12.10;99.90;;;;;;5020255;28;20547;-77
2022/01/01 11:56:46;;;;;;;18.00;9.38;;;12.20;99.90;;;;;;5021575;28;20045;-78
2022/01/01 11:59:29;;;;;;;16.30;8.73;;;12.10;99.90;;;;;;5023678;28;20132;-77
2022/01/01 12:02:00;;;;;;;24.23;9.45;;;12.20;99.90;;;;;;5022861;28;20049;-78
2022/01/01 12:04:32;;;;;;;24.75;9.43;;;12.20;99.90;;;;;;5022992;28;20037;-76
2022/01/01 12:07:11;;;;;;;17.02;8.88;;;12.20;99.90;;;;;;5020871;28;20522;-76
2022/01/01 12:09:57;;;;;;;21.77;9.07;;;12.30;99.90;;;;;;5019818;28;20041;-78
2022/01/01 12:12:50;;;;;;;22.05;8.27;;;12.20;99.90;;;;;;5008788;28;20045;-77
2022/01/01 12:15:42;;;;;;;18.02;8.73;;;12.20;99.90;;;;;;5023117;28;20068;-78
2022/01/01 12:18:09;;;;;;;17.33;10.07;;;12.20;99.90;;;;;;5014233;28;20511;-76
2022/01/01 12:20:36;;;;;;;14.95;8.20;;;12.30;99.90;;;;;;5021726;28;20131;-78
2022/01/01 12:23:08;;;;;;;20.55;8.40;;;12.20;99.90;;;;;;5021163;28;20037;-77
2022/01/01 12:25:35;;;;;;;16.65;9.43;;;12.40;99.90;;;;;;5021851;28;20051;-78
2022/01/01 12:28:07;;;;;;;19.17;8.20;;;12.30;99.90;;;;;;5022838;28;20029;-76
2022/01/01 12:30:33;;;;;;;22.58;8.48;;;;;;;;;;5019187;28;20404;-76
2022/01/01 12:32:59;;;;;;;17.52;8.00;;;;;;;;;;5019426;28;20043;-75
2022/01/01 12:35:51;;;;;;;17.65;7.40;;;12.30;99.90;;;;;;5018129;28;20049;-76
2022/01/01 12:38:26;;;;;;;20.90;8.02;;;12.40;99.90;;;;;;5019253;28;20151;-79
2022/01/01 12:40:59;;;;;;;15.77;7.72;;;12.30;99.90;;;;;;5020101;28;20047;-77
2022/01/01 12:43:27;;;;;;;25.50;8.90;;;12.20;99.90;;;;;;5022177;28;20040;-77
2022/01/01 12:45:54;;;;;;;17.35;8.98;;;12.30;99.90;;;;;;5022848;28;20101;-77